Time;durP1;ratioP1;P1;durP2;ratioP2;P2;SDS_P1;SDS_P2;PMS_P1;PMS_P2;Temp;Humidity;BMP_temperature;BMP_pressure;BME280_temperature;BME280_humidity;BME280_pressure;Samples;Min_cycle;Max_cycle;Signal;HPM_P1;HPM_P2
2022/06/03 00:02:03;;;;;;;8.45;4.93;;;;;;;10.12;90.95;101572.72;6029338;28;20037;-67
2022/06/03 00:05:15;;;;;;;6.22;3.90;;;;;;;10.09;89.84;101561.50;6025244;28;20092;-67
2022/06/03 00:08:42;;;;;;;6.63;3.90;;;;;;;10.13;90.15;101563.84;6031358;28;20085;-66
2022/06/03 00:11:49;;;;;;;9.00;4.85;;;;;;;10.23;89.88;101552.47;6027607;28;20034;-67
2022/06/03 00:15:05;;;;;;;8.30;4.65;;;;;;;9.91;89.50;101566.47;6026536;28;20038;-66
2022/06/03 00:18:36;;;;;;;8.98;4.57;;;;;;;10.01;90.06;101569.22;6026671;28;20041;-67
2022/06/03 00:21:50;;;;;;;7.68;4.05;;;;;;;10.00;89.82;101578.16;6027084;28;20049;-67
2022/06/03 00:24:52;;;;;;;7.95;3.53;;;;;;;9.95;88.46;101567.03;6042049;28;20052;-66
2022/06/03 00:27:57;;;;;;;9.15;4.80;;;;;;;10.02;87.86;101570.91;6039568;28;20037;-67
2022/06/03 00:31:02;;;;;;;9.20;4.88;;;;;;;10.02;88.59;101576.22;6047690;28;20069;-66
2022/06/03 00:34:24;;;;;;;13.00;5.10;;;;;;;9.84;89.67;101567.03;6026804;28;20172;-67
2022/06/03 00:37:45;;;;;;;12.48;5.68;;;;;;;9.89;89.94;101576.31;6026388;28;20038;-66
2022/06/03 00:40:58;;;;;;;13.07;6.13;;;;;;;9.90;90.12;101578.00;6052744;28;20046;-67
2022/06/03 00:44:09;;;;;;;14.80;6.88;;;;;;;9.90;89.32;101571.84;6026063;28;20031;-66
2022/06/03 00:47:10;;;;;;;10.10;5.53;;;;;;;9.81;88.87;101577.91;6023801;28;20106;-66
2022/06/03 00:50:23;;;;;;;10.25;5.40;;;;;;;9.63;88.45;101569.56;6025416;28;20042;-66
2022/06/03 00:53:36;;;;;;;9.65;4.75;;;;;;;9.80;89.49;101560.31;6025498;28;20085;-66
2022/06/03 00:56:56;;;;;;;6.30;3.67;;;;;;;9.47;88.59;101564.63;6024725;28;20038;-66
2022/06/03 01:00:03;;;;;;;9.38;4.75;;;;;;;9.45;88.02;101550.66;6043527;28;20038;-66
2022/06/03 01:03:11;;;;;;;7.53;4.07;;;;;;;9.36;87.92;101556.66;6066310;28;20034;-67
2022/06/03 01:06:18;;;;;;;5.53;3.25;;;;;;;9.44;89.28;101553.41;6032999;28;20041;-67
2022/06/03 01:09:19;;;;;;;7.38;4.30;;;;;;;9.46;89.09;101552.34;6027735;28;20046;-67
2022/06/03 01:12:25;;;;;;;5.50;3.40;;;;;;;9.46;90.30;101551.47;6037809;28;20120;-67
2022/06/03 01:15:44;;;;;;;6.38;3.38;;;;;;;9.38;89.14;101546.78;6031442;28;20088;-66
2022/06/03 01:18:58;;;;;;;6.22;4.03;;;;;;;9.22;89.60;101542.78;6035597;28;20065;-67
2022/06/03 01:22:01;;;;;;;;;;;;;;;9.30;91.16;101538.59;6030970;28;20080;-67
2022/06/03 01:25:06;;;;;;;8.05;4.60;;;;;;;9.02;90.52;101528.44;6046684;28;19921;-67
2022/06/03 01:28:36;;;;;;;7.03;3.72;;;;;;;8.72;91.10;101533.38;6031097;28;20037;-67
2022/06/03 01:32:08;;;;;;;6.00;3.33;;;;;;;8.66;92.67;101544.41;6029849;28;20462;-66
2022/06/03 01:35:30;;;;;;;5.50;3.15;;;;;;;8.65;92.83;101553.28;6027074;28;20494;-66
2022/06/03 01:38:49;;;;;;;6.55;3.63;;;;;;;8.88;92.86;101544.50;6031349;28;20485;-65
2022/06/03 01:42:15;;;;;;;6.00;3.78;;;;;;;9.04;92.54;101550.31;6029941;28;20470;-66
2022/06/03 01:45:36;;;;;;;7.55;4.32;;;;;;;9.08;92.06;101549.13;6030911;28;20038;-67
2022/06/03 01:48:52;;;;;;;6.28;3.60;;;;;;;8.84;91.05;101537.75;6018780;28;20053;-67
2022/06/03 01:51:52;;;;;;;7.28;3.95;;;;;;;8.89;90.81;101546.16;6036230;28;20491;-67
2022/06/03 01:54:47;;;;;;;7.07;4.63;;;;;;;8.77;90.37;101547.94;6030151;28;20038;-67
2022/06/03 01:57:58;;;;;;;8.50;4.63;;;;;;;8.50;90.65;101543.84;6030395;28;20034;-67
2022/06/03 02:01:05;;;;;;;8.63;5.15;;;;;;;8.31;91.61;101544.34;6029149;28;20038;-66
2022/06/03 02:04:16;;;;;;;7.60;3.97;;;;;;;8.43;92.55;101542.59;6030133;28;20042;-67
2022/06/03 02:07:51;;;;;;;8.68;5.07;;;;;;;8.27;92.31;101537.56;6045181;28;20116;-66
2022/06/03 02:11:14;;;;;;;7.22;4.57;;;;;;;8.54;92.07;101545.28;6034707;28;20100;-66
2022/06/03 02:14:32;;;;;;;9.88;5.50;;;;;;;8.34;92.14;101544.94;6030967;28;20425;-67
2022/06/03 02:17:38;;;;;;;8.30;4.63;;;;;;;8.47;92.88;101542.28;6029670;28;20139;-67
2022/06/03 02:20:57;;;;;;;7.72;5.05;;;;;;;8.64;92.58;101523.34;6032345;28;20038;-67
2022/06/03 02:24:13;;;;;;;8.02;4.32;;;;;;;8.45;92.71;101541.53;6010780;28;20410;-67
2022/06/03 02:27:46;;;;;;;10.27;5.20;;;;;;;8.62;93.46;101537.63;6036965;28;20132;-66
2022/06/03 02:31:29;;;;;;;8.23;5.05;;;;;;;8.20;92.57;101537.16;6044898;28;20164;-67
2022/06/03 02:34:51;;;;;;;7.65;4.93;;;;;;;8.62;93.68;101540.28;6025689;28;20413;-66
2022/06/03 02:38:06;;;;;;;11.60;5.22;;;;;;;8.67;93.28;101531.06;6035546;28;20130;-67
2022/06/03 02:41:38;;;;;;;9.02;5.40;;;;;;;8.47;92.29;101544.06;6028180;28;20042;-67
2022/06/03 02:44:46;;;;;;;9.02;5.10;;;;;;;8.48;92.83;101543.13;6029747;28;20459;-66
2022/06/03 02:48:14;;;;;;;8.80;4.95;;;;;;;8.55;93.01;101524.03;6030726;28;20034;-66
2022/06/03 02:51:21;;;;;;;8.15;5.03;;;;;;;8.53;93.43;101530.41;6029599;28;20581;-66
2022/06/03 02:54:34;;;;;;;10.02;5.60;;;;;;;7.94;92.72;101542.59;6027458;28;20084;-67
2022/06/03 02:57:41;;;;;;;9.23;4.85;;;;;;;8.26;93.17;101539.34;6027747;28;20061;-66
2022/06/03 03:00:49;;;;;;;7.88;4.78;;;;;;;8.20;93.81;101537.16;6042986;28;20041;-66
2022/06/03 03:04:03;;;;;;;7.68;5.00;;;;;;;8.32;92.87;101540.72;6020418;28;20100;-67
2022/06/03 03:07:14;;;;;;;8.50;5.82;;;;;;;8.15;92.99;101543.72;6022385;28;20037;-66
2022/06/03 03:10:30;;;;;;;12.45;5.10;;;;;;;8.17;93.32;101539.16;6032366;28;20390;-67
2022/06/03 03:13:50;;;;;;;8.82;5.35;;;;;;;8.43;93.75;101537.28;6049560;28;20035;-67
2022/06/03 03:16:54;;;;;;;9.52;5.30;;;;;;;8.30;92.66;101538.22;6028062;28;20030;-66
2022/06/03 03:20:21;;;;;;;9.50;6.00;;;;;;;8.23;93.42;101544.03;6027900;28;20482;-67
2022/06/03 03:23:36;;;;;;;10.82;5.38;;;;;;;8.20;94.11;101538.94;6029894;28;20402;-67
2022/06/03 03:26:53;;;;;;;9.45;4.95;;;;;;;8.19;93.25;101524.91;6027799;28;20117;-67
2022/06/03 03:30:01;;;;;;;8.25;5.15;;;;;;;8.02;92.96;101527.91;6026850;28;20548;-66
2022/06/03 03:33:06;;;;;;;9.50;5.35;;;;;;;7.98;93.61;101534.38;6027878;28;20034;-66
2022/06/03 03:36:19;;;;;;;9.85;4.70;;;;;;;8.07;93.68;101524.94;6036304;28;20100;-66
2022/06/03 03:39:33;;;;;;;;;;;;;;;8.02;92.78;101538.47;6028413;28;20383;-66
2022/06/03 03:42:49;;;;;;;10.25;5.32;;;;;;;7.88;93.73;101535.94;6039430;28;19955;-66
2022/06/03 03:46:13;;;;;;;10.45;5.18;;;;;;;7.93;94.07;101539.13;6047965;28;20042;-66
2022/06/03 03:49:31;;;;;;;7.78;5.10;;;;;;;7.97;94.04;101537.94;6042492;28;20046;-65
2022/06/03 03:52:41;;;;;;;7.85;4.40;;;;;;;8.11;94.31;101536.97;6036970;28;20089;-64
2022/06/03 03:55:36;;;;;;;7.68;4.55;;;;;;;7.87;93.79;101542.19;6029715;28;20041;-67
2022/06/03 03:59:09;;;;;;;7.67;4.83;;;;;;;7.76;93.75;101553.53;6027388;28;20030;-67
2022/06/03 04:02:16;;;;;;;;;;;;;;;8.16;94.51;101559.44;6027007;28;20042;-66
2022/06/03 04:05:21;;;;;;;7.90;4.93;;;;;;;8.43;94.59;101561.94;6043084;28;19917;-66
2022/06/03 04:08:35;;;;;;;9.07;5.05;;;;;;;8.51;93.33;101559.56;6037867;28;20049;-66
2022/06/03 04:12:22;;;;;;;7.47;5.40;;;;;;;8.16;92.75;101559.44;6032574;28;20034;-67
2022/06/03 04:15:54;;;;;;;8.00;5.30;;;;;;;8.18;93.53;101554.09;6014673;28;20451;-67
2022/06/03 04:19:07;;;;;;;8.73;5.28;;;;;;;8.48;93.61;101551.88;6026276;28;20042;-66
2022/06/03 04:22:39;;;;;;;9.55;5.97;;;;;;;9.13;92.82;101543.50;6028566;28;20054;-66
2022/06/03 04:26:10;;;;;;;7.22;4.80;;;;;;;9.46;88.91;101546.19;5956417;28;20100;-67
2022/06/03 04:29:39;;;;;;;6.72;4.07;;;;;;;10.31;87.04;101542.09;5976292;29;20045;-66
2022/06/03 04:33:12;;;;;;;6.65;4.18;;;;;;;11.26;81.50;101542.06;6025814;28;20041;-66
2022/06/03 04:36:38;;;;;;;6.05;4.18;;;;;;;10.72;79.77;101540.41;6017675;28;20441;-66
2022/06/03 04:39:39;;;;;;;5.72;3.80;;;;;;;11.00;80.60;101546.06;6037744;28;20157;-66
2022/06/03 04:43:11;;;;;;;5.45;3.45;;;;;;;11.16;80.30;101547.31;6025785;28;20084;-66
2022/06/03 04:46:25;;;;;;;5.53;3.50;;;;;;;10.80;79.73;101545.06;6041571;28;20038;-67
2022/06/03 04:49:41;;;;;;;5.88;3.75;;;;;;;11.39;79.62;101545.34;6026700;28;20050;-66
2022/06/03 04:53:00;;;;;;;5.97;3.55;;;;;;;10.80;79.28;101545.06;6024611;28;20030;-66
2022/06/03 04:56:43;;;;;;;6.10;3.55;;;;;;;11.00;80.54;101557.53;6027460;28;20076;-66
2022/06/03 04:59:50;;;;;;;7.57;3.60;;;;;;;11.82;77.56;101558.50;6001159;28;20034;-65
2022/06/03 05:03:01;;;;;;;6.22;3.08;;;;;;;12.49;74.42;101546.22;6041905;28;20378;-66
2022/06/03 05:06:15;;;;;;;4.45;3.20;;;;;;;12.23;75.84;101544.22;6047181;28;20042;-65
2022/06/03 05:09:29;;;;;;;4.32;2.63;;;;;;;12.25;74.67;101528.97;6034644;28;20038;-65
2022/06/03 05:12:55;;;;;;;6.70;2.80;;;;;;;11.93;73.81;101539.78;6025099;28;20485;-66
2022/06/03 05:16:21;;;;;;;4.22;2.90;;;;;;;12.53;74.68;101526.34;6059793;28;20041;-66
2022/06/03 05:19:48;;;;;;;5.32;3.15;;;;;;;12.74;73.41;101528.03;6031557;28;20112;-67
2022/06/03 05:23:06;;;;;;;5.05;3.40;;;;;;;13.15;71.63;101524.28;6031441;28;20033;-66
2022/06/03 05:26:14;;;;;;;7.07;3.22;;;;;;;13.48;70.81;101526.44;6040539;28;20037;-66
2022/06/03 05:29:28;;;;;;;5.03;3.33;;;;;;;13.38;71.86;101526.44;6027905;28;20393;-65
2022/06/03 05:32:45;;;;;;;5.97;2.97;;;;;;;13.61;70.67;101526.97;6024880;28;20034;-67
2022/06/03 05:36:22;;;;;;;5.05;2.92;;;;;;;13.52;71.12;101517.16;6020638;28;20108;-65
2022/06/03 05:39:29;;;;;;;4.97;3.00;;;;;;;14.05;69.71;101520.03;6011494;28;20120;-65
2022/06/03 05:43:16;;;;;;;6.05;3.33;;;;;;;13.92;70.19;101514.19;6025070;28;20034;-65
2022/06/03 05:46:17;;;;;;;5.60;3.13;;;;;;;14.06;68.79;101516.34;5978350;28;20136;-65
2022/06/03 05:49:26;;;;;;;4.15;2.60;;;;;;;14.69;66.99;101510.06;6028513;28;20039;-64
2022/06/03 05:52:46;;;;;;;4.35;2.50;;;;;;;15.06;65.92;101517.03;6022823;28;20478;-65
2022/06/03 05:56:19;;;;;;;4.88;3.05;;;;;;;15.09;66.66;101517.56;6033063;28;20038;-65
2022/06/03 05:59:17;;;;;;;6.32;2.92;;;;;;;14.81;66.57;101508.00;6028077;28;20033;-64
2022/06/03 06:02:25;;;;;;;4.00;2.67;;;;;;;14.69;68.25;101503.88;6031912;28;20027;-65
2022/06/03 06:05:37;;;;;;;4.85;2.70;;;;;;;15.68;64.97;101502.63;6044107;28;20498;-66
2022/06/03 06:08:42;;;;;;;4.22;2.78;;;;;;;15.57;65.10;101506.41;6042999;28;20052;-65
2022/06/03 06:12:04;;;;;;;3.55;2.60;;;;;;;15.94;64.26;101514.94;6037520;28;20405;-67
2022/06/03 06:15:35;;;;;;;4.75;2.95;;;;;;;16.29;63.47;101513.88;6043747;28;20045;-65
2022/06/03 06:18:52;;;;;;;3.40;2.45;;;;;;;15.64;64.75;101503.91;6045113;28;20049;-65
2022/06/03 06:22:25;;;;;;;3.95;2.40;;;;;;;15.94;65.10;101511.41;6028983;28;20084;-66
2022/06/03 06:25:23;;;;;;;4.10;2.45;;;;;;;16.25;63.90;101504.50;6029022;28;20038;-65
2022/06/03 06:28:24;;;;;;;6.13;2.38;;;;;;;16.35;62.91;101507.88;6040013;28;20125;-66
2022/06/03 06:31:30;;;;;;;4.10;2.53;;;;;;;16.71;63.83;101497.75;6028212;28;20049;-66
2022/06/03 06:34:25;;;;;;;5.13;2.80;;;;;;;16.98;59.74;101510.00;6038122;28;20401;-66
2022/06/03 06:37:48;;;;;;;4.77;3.03;;;;;;;17.14;61.20;101502.78;6040259;28;20084;-66
2022/06/03 06:41:25;;;;;;;3.63;2.35;;;;;;;16.70;62.53;101516.66;6052776;28;20165;-66
2022/06/03 06:44:32;;;;;;;4.55;2.78;;;;;;;16.63;62.31;101511.97;5995324;28;20042;-66
2022/06/03 06:47:55;;;;;;;3.13;2.10;;;;;;;17.63;58.96;101502.69;6019865;28;20042;-65
2022/06/03 06:50:58;;;;;;;3.65;2.50;;;;;;;17.30;60.04;101503.75;6024706;28;20038;-65
2022/06/03 06:54:12;;;;;;;4.45;2.58;;;;;;;18.01;58.07;101498.38;6027956;28;20049;-65
2022/06/03 06:57:23;;;;;;;5.13;2.47;;;;;;;18.44;55.44;101485.19;6029841;28;20463;-65
2022/06/03 07:00:32;;;;;;;4.03;2.70;;;;;;;16.79;61.56;101481.69;6041958;28;20041;-65
2022/06/03 07:03:27;;;;;;;4.15;2.50;;;;;;;17.62;58.13;101487.59;6038757;28;20065;-66
2022/06/03 07:06:39;;;;;;;5.17;2.60;;;;;;;17.76;59.11;101487.72;6034994;28;20141;-66
2022/06/03 07:09:48;;;;;;;4.15;2.40;;;;;;;18.65;55.62;101471.13;6068619;28;20157;-66
2022/06/03 07:12:52;;;;;;;5.35;2.90;;;;;;;18.67;54.99;101481.72;6038027;28;20038;-66
2022/06/03 07:15:57;;;;;;;7.55;2.63;;;;;;;18.36;55.61;101479.88;6051475;28;20038;-65
2022/06/03 07:22:31;;;;;;;3.58;1.88;;;;;;;18.60;56.59;101473.53;6064578;28;20030;-66
2022/06/03 07:25:31;;;;;;;4.68;2.10;;;;;;;19.07;52.09;101477.81;6055038;28;20038;-65
2022/06/03 07:28:28;;;;;;;3.17;1.70;;;;;;;19.19;51.57;101479.88;6051129;28;20461;-65
2022/06/03 07:31:30;;;;;;;6.50;1.95;;;;;;;19.65;50.70;101469.00;6077805;28;20518;-65
2022/06/03 07:34:51;;;;;;;4.00;1.92;;;;;;;18.50;54.34;101466.72;6069980;28;20034;-66
2022/06/03 07:38:00;;;;;;;4.18;1.90;;;;;;;19.44;50.57;101467.03;6050116;28;20033;-65
2022/06/03 07:41:03;;;;;;;3.40;1.70;;;;;;;19.66;49.66;101458.03;6050841;28;20034;-65
2022/06/03 07:44:13;;;;;;;4.05;1.90;;;;;;;19.72;50.10;101460.00;6066528;28;20432;-66
2022/06/03 07:47:09;;;;;;;4.25;1.65;;;;;;;19.51;49.09;101451.84;6050296;28;20033;-65
2022/06/03 07:50:07;;;;;;;2.78;1.60;;;;;;;19.37;49.33;101447.25;6050138;28;20076;-65
2022/06/03 07:53:12;;;;;;;3.65;1.95;;;;;;;19.26;48.15;101455.78;6057538;28;20033;-65
2022/06/03 07:56:08;;;;;;;5.10;1.75;;;;;;;19.52;47.42;101438.19;6053934;28;20034;-65
2022/06/03 07:59:12;;;;;;;5.60;2.03;;;;;;;19.44;48.30;101440.13;6050785;28;20034;-64
2022/06/03 08:02:11;;;;;;;3.72;2.10;;;;;;;19.62;48.12;101442.47;6046384;28;20418;-65
2022/06/03 08:05:14;;;;;;;2.88;1.70;;;;;;;19.77;47.96;101433.34;6048444;28;20025;-65
2022/06/03 08:11:33;;;;;;;2.45;1.60;;;;;;;19.87;46.62;101433.88;6049478;28;21282;-66
2022/06/03 08:14:29;;;;;;;2.83;1.70;;;;;;;19.68;48.39;101428.25;6058222;28;20034;-66
2022/06/03 08:17:25;;;;;;;3.17;1.80;;;;;;;20.03;46.70;101424.75;6050005;28;20053;-66
2022/06/03 08:20:22;;;;;;;2.97;1.60;;;;;;;19.86;46.53;101431.38;6064363;28;20318;-66
2022/06/03 08:23:19;;;;;;;3.40;2.15;;;;;;;19.75;46.26;101423.78;6052078;28;20034;-65
2022/06/03 08:26:17;;;;;;;3.33;1.88;;;;;;;19.85;45.62;101421.63;6064813;28;20051;-65
2022/06/03 08:29:37;;;;;;;3.25;1.90;;;;;;;19.99;47.01;101421.59;6048623;28;20034;-66
2022/06/03 08:32:35;;;;;;;4.15;2.05;;;;;;;20.02;46.89;101420.38;6064061;28;20432;-66
2022/06/03 08:35:41;;;;;;;2.88;1.83;;;;;;;20.12;46.45;101421.75;6070526;28;20594;-67
2022/06/03 08:38:48;;;;;;;3.72;1.60;;;;;;;20.31;45.14;101438.31;6049761;28;20034;-66
2022/06/03 08:42:03;;;;;;;2.78;1.80;;;;;;;20.03;45.30;101425.56;6047923;28;20371;-65
2022/06/03 08:45:10;;;;;;;3.05;2.00;;;;;;;19.71;46.91;101417.94;6064709;28;20121;-65
2022/06/03 08:48:14;;;;;;;3.65;1.90;;;;;;;20.11;46.73;101428.13;6049793;28;20441;-66
2022/06/03 08:51:17;;;;;;;3.40;1.80;;;;;;;20.00;45.90;101420.56;6057881;28;20050;-66
2022/06/03 08:54:30;;;;;;;3.10;2.00;;;;;;;20.00;46.60;101415.16;6049786;28;20041;-66
2022/06/03 08:57:35;;;;;;;2.67;1.85;;;;;;;20.37;49.11;101418.72;6064772;28;20068;-66
2022/06/03 09:00:44;;;;;;;3.95;2.10;;;;;;;20.43;45.20;101420.63;6048694;28;20111;-66
2022/06/03 09:04:03;;;;;;;3.22;1.80;;;;;;;20.69;46.07;101426.25;6048246;28;20042;-65
2022/06/03 09:07:19;;;;;;;2.63;1.92;;;;;;;20.73;45.12;101423.00;6029610;28;20092;-66
2022/06/03 09:10:40;;;;;;;4.00;2.10;;;;;;;20.64;45.11;101423.31;6063223;28;20030;-67
2022/06/03 09:13:42;;;;;;;3.60;1.58;;;;;;;20.93;46.01;101414.19;6047975;28;20393;-66
2022/06/03 09:16:39;;;;;;;3.17;2.00;;;;;;;20.98;45.40;101406.38;6048976;28;20034;-67
2022/06/03 09:19:39;;;;;;;2.78;2.00;;;;;;;20.88;45.39;101404.00;6048416;28;20484;-66
2022/06/03 09:22:34;;;;;;;4.20;2.45;;;;;;;21.07;45.81;101392.56;6063865;28;20037;-66
2022/06/03 09:25:33;;;;;;;3.15;1.80;;;;;;;21.28;44.56;101400.56;6049689;28;20409;-66
2022/06/03 09:28:31;;;;;;;2.67;1.65;;;;;;;21.55;44.61;101393.44;6049573;28;20041;-66
2022/06/03 09:31:27;;;;;;;2.47;1.83;;;;;;;21.17;42.47;101392.22;6056727;28;20038;-66
2022/06/03 09:34:33;;;;;;;3.60;1.77;;;;;;;21.25;43.54;101384.78;6049973;28;20088;-66
2022/06/03 09:37:35;;;;;;;4.22;2.10;;;;;;;20.77;43.30;101382.97;6049368;28;20034;-66
2022/06/03 09:40:33;;;;;;;4.57;1.90;;;;;;;21.28;44.23;101399.72;6063844;28;20046;-65
2022/06/03 09:43:32;;;;;;;3.30;1.70;;;;;;;20.91;43.72;101390.13;6060780;28;20148;-66
2022/06/03 09:46:31;;;;;;;5.72;1.90;;;;;;;21.39;43.30;101390.28;6054879;28;20113;-66
2022/06/03 09:49:28;;;;;;;2.70;1.73;;;;;;;21.46;42.38;101393.81;6053669;28;20030;-66
2022/06/03 09:52:26;;;;;;;2.97;1.88;;;;;;;21.44;43.54;101383.25;6058031;28;20412;-66
2022/06/03 09:55:32;;;;;;;2.35;1.77;;;;;;;21.83;42.74;101387.94;6070081;28;20072;-66
2022/06/03 09:58:31;;;;;;;3.50;2.08;;;;;;;22.08;42.48;101383.69;6062091;28;20037;-65
2022/06/03 10:01:27;;;;;;;2.30;1.75;;;;;;;22.28;41.37;101373.75;6056699;28;20381;-66
2022/06/03 10:04:23;;;;;;;3.45;1.88;;;;;;;21.75;42.38;101385.41;6056197;28;20061;-66
2022/06/03 10:07:18;;;;;;;2.83;1.90;;;;;;;21.42;43.48;101385.28;6059197;28;20030;-67
2022/06/03 10:13:33;;;;;;;3.92;2.05;;;;;;;21.82;41.84;101386.28;6067057;28;20046;-66
2022/06/03 10:16:28;;;;;;;4.30;1.83;;;;;;;22.08;43.68;101374.75;6051699;28;20724;-67
2022/06/03 10:19:24;;;;;;;3.38;2.10;;;;;;;21.93;40.65;101372.22;6059072;28;20025;-66
2022/06/03 10:22:21;;;;;;;3.63;1.97;;;;;;;21.85;44.16;101364.28;6056894;28;20029;-66
2022/06/03 10:25:17;;;;;;;2.83;1.85;;;;;;;21.91;41.33;101363.47;6057183;28;20280;-66
2022/06/03 10:28:14;;;;;;;4.20;2.10;;;;;;;22.17;43.43;101363.56;6055622;28;20044;-66
2022/06/03 10:31:15;;;;;;;3.05;1.90;;;;;;;21.72;41.14;101358.81;6051145;28;20722;-66
2022/06/03 10:34:14;;;;;;;2.15;1.70;;;;;;;22.09;42.08;101355.63;6054409;28;20079;-67
2022/06/03 10:37:12;;;;;;;3.90;1.65;;;;;;;22.04;41.36;101368.91;6061692;28;20030;-66
2022/06/03 10:40:08;;;;;;;3.35;2.00;;;;;;;21.78;41.45;101348.06;6053519;28;20041;-66
2022/06/03 10:43:04;;;;;;;3.97;1.80;;;;;;;22.04;40.39;101344.59;6053008;28;20151;-66
2022/06/03 10:46:11;;;;;;;2.70;1.87;;;;;;;22.62;41.42;101345.66;6052345;28;20038;-67
2022/06/03 10:49:11;;;;;;;6.07;2.03;;;;;;;22.54;40.17;101335.91;6061824;28;20322;-67
2022/06/03 11:02:01;;;;;;;2.80;1.80;;;;;;;22.92;41.55;101319.03;6051794;28;20624;-66
2022/06/03 11:05:29;;;;;;;2.80;1.80;;;;;;;23.08;40.06;101316.69;6051954;28;20141;-66
2022/06/03 11:08:24;;;;;;;4.35;2.08;;;;;;;22.81;39.42;101306.97;6051707;28;20041;-66
2022/06/03 11:12:02;;;;;;;4.63;1.90;;;;;;;22.97;39.25;101300.28;6058604;28;20174;-67
2022/06/03 11:14:57;;;;;;;3.13;1.90;;;;;;;23.01;40.35;101305.06;5971973;28;20035;-67
2022/06/03 11:17:53;;;;;;;4.43;2.43;;;;;;;22.60;39.26;101304.50;6054606;28;20516;-66
2022/06/03 11:20:50;;;;;;;2.80;2.10;;;;;;;22.56;38.94;101303.22;6051483;28;20721;-66
2022/06/03 11:23:46;;;;;;;4.60;2.20;;;;;;;22.57;40.21;101307.63;6053336;28;20041;-67
2022/06/03 11:26:45;;;;;;;2.63;1.70;;;;;;;22.72;40.13;101299.31;6054698;28;20029;-67
2022/06/03 11:29:41;;;;;;;2.88;1.55;;;;;;;;;;6051248;28;20133;-67
2022/06/03 11:32:38;;;;;;;3.20;2.00;;;;;;;22.96;40.94;101277.81;6050839;28;20034;-67
2022/06/03 11:35:47;;;;;;;2.40;1.80;;;;;;;23.07;41.04;101279.84;6049689;28;20034;-66
2022/06/03 11:38:49;;;;;;;3.40;1.90;;;;;;;23.13;39.11;101278.16;6056913;28;20537;-66
2022/06/03 11:41:48;;;;;;;4.40;2.00;;;;;;;22.83;39.08;101268.91;6077194;28;20030;-67
2022/06/03 11:44:54;;;;;;;2.88;2.00;;;;;;;23.00;39.71;101264.69;6051275;28;20108;-66
2022/06/03 11:48:03;;;;;;;2.80;1.70;;;;;;;23.61;38.19;101259.63;6071654;28;20076;-67
2022/06/03 11:50:59;;;;;;;2.50;1.92;;;;;;;23.02;38.48;101255.28;6050739;28;20500;-67
2022/06/03 11:53:55;;;;;;;3.50;1.98;;;;;;;22.66;40.48;101240.66;6060035;28;20029;-66
2022/06/03 11:56:51;;;;;;;3.47;1.75;;;;;;;22.92;38.90;101244.09;6050790;28;20029;-67
2022/06/03 12:00:06;;;;;;;5.00;1.90;;;;;;;23.52;38.52;101245.50;6067290;28;20095;-67
2022/06/03 12:03:23;;;;;;;3.10;2.00;;;;;;;23.53;42.22;101241.78;6066303;28;20041;-67
2022/06/03 12:06:32;;;;;;;2.47;1.60;;;;;;;23.88;37.22;101230.47;6049728;28;20076;-67
2022/06/03 12:09:38;;;;;;;3.47;1.75;;;;;;;23.69;37.34;101235.81;6054685;28;20033;-67
2022/06/03 12:15:58;;;;;;;2.90;1.70;;;;;;;24.14;36.35;101236.53;6063383;28;19913;-67
2022/06/03 12:19:01;;;;;;;2.30;1.48;;;;;;;24.08;37.77;101223.03;6045917;28;20034;-67
2022/06/03 12:22:15;;;;;;;2.28;1.70;;;;;;;23.90;35.90;101220.22;6052214;28;20022;-66
2022/06/03 12:25:32;;;;;;;3.03;1.70;;;;;;;23.97;35.92;101229.16;6049121;28;20045;-67
2022/06/03 12:28:34;;;;;;;3.33;1.83;;;;;;;23.83;36.97;101214.88;6050125;28;20058;-67
2022/06/03 12:31:35;;;;;;;3.10;1.65;;;;;;;23.77;36.72;101210.34;6064805;28;20032;-66
2022/06/03 12:34:30;;;;;;;4.72;1.83;;;;;;;23.66;36.98;101200.22;6054193;28;20112;-66
2022/06/03 12:37:28;;;;;;;3.53;1.80;;;;;;;23.32;38.20;101201.44;6060735;28;20037;-66
2022/06/03 12:40:26;;;;;;;3.05;1.85;;;;;;;23.11;36.67;101199.06;6051438;28;20029;-66
2022/06/03 12:43:27;;;;;;;2.03;1.50;;;;;;;23.66;37.52;101194.78;6061009;28;20041;-67
2022/06/03 12:46:39;;;;;;;2.22;1.48;;;;;;;24.64;35.42;101185.75;6054505;28;20038;-68
2022/06/03 12:49:35;;;;;;;2.95;1.70;;;;;;;24.45;35.14;101191.38;6049984;28;20041;-67
2022/06/03 12:52:34;;;;;;;2.85;1.60;;;;;;;24.60;36.71;101187.25;6058681;28;20425;-67
2022/06/03 12:55:32;;;;;;;3.15;1.58;;;;;;;24.55;37.91;101176.25;6050355;28;20079;-67
2022/06/03 12:58:45;;;;;;;3.33;1.85;;;;;;;24.46;35.20;101185.72;6057455;28;20065;-67
2022/06/03 13:02:03;;;;;;;1.60;1.30;;;;;;;24.78;36.16;101175.56;6048230;28;20065;-67
2022/06/03 13:05:01;;;;;;;4.93;1.73;;;;;;;24.07;35.00;101172.56;6065474;28;20041;-67
2022/06/03 13:08:00;;;;;;;2.15;1.52;;;;;;;24.34;36.46;101174.00;6050009;28;20529;-67
2022/06/03 13:10:58;;;;;;;2.25;1.45;;;;;;;25.49;34.61;101164.81;6049151;28;20092;-68
2022/06/03 13:13:56;;;;;;;2.88;1.58;;;;;;;25.38;33.13;101173.72;6049492;28;20054;-67
2022/06/03 13:16:51;;;;;;;1.92;1.23;;;;;;;24.87;36.24;101162.56;6055826;28;20033;-67
2022/06/03 13:19:57;;;;;;;5.37;1.53;;;;;;;25.11;34.86;101158.88;6062016;28;20489;-67
2022/06/03 13:22:57;;;;;;;2.65;1.75;;;;;;;24.61;35.83;101158.25;6054089;28;20048;-67
2022/06/03 13:25:54;;;;;;;3.20;1.60;;;;;;;25.11;33.84;101159.69;6054487;28;20041;-67
2022/06/03 13:28:51;;;;;;;3.33;2.08;;;;;;;24.92;32.71;101149.94;6071330;28;20095;-67
2022/06/03 13:31:56;;;;;;;3.75;1.60;;;;;;;25.40;33.35;101155.31;6056638;28;20025;-67
2022/06/03 13:35:05;;;;;;;5.32;1.55;;;;;;;25.51;34.42;101140.97;6046899;28;20084;-67
2022/06/03 13:38:15;;;;;;;2.10;1.50;;;;;;;26.01;32.80;101133.19;6053278;28;20058;-67
2022/06/03 13:44:37;;;;;;;5.65;2.15;;;;;;;26.52;34.37;101127.00;6050585;28;20022;-67
2022/06/03 13:47:47;;;;;;;2.55;1.60;;;;;;;26.64;30.59;101122.34;6059081;28;20474;-68
2022/06/03 13:50:42;;;;;;;2.97;1.52;;;;;;;26.30;31.95;101115.09;6052783;28;20739;-67
2022/06/03 13:53:38;;;;;;;3.47;1.30;;;;;;;26.02;33.47;101118.53;6054867;28;20037;-67
2022/06/03 13:56:34;;;;;;;2.55;1.60;;;;;;;26.24;32.72;101121.50;6054512;28;20088;-67
2022/06/03 13:59:40;;;;;;;2.42;1.70;;;;;;;26.70;31.60;101121.38;6067766;28;20068;-67
2022/06/03 14:02:37;;;;;;;2.97;1.73;;;;;;;26.02;34.90;101124.78;6050765;28;20045;-67
2022/06/03 14:05:51;;;;;;;3.67;2.75;;;;;;;25.43;32.35;101122.25;6052802;28;20030;-67
2022/06/03 14:08:52;;;;;;;3.05;1.80;;;;;;;25.35;33.42;101122.59;6046275;28;20034;-66
2022/06/03 14:11:55;;;;;;;2.10;1.60;;;;;;;25.51;33.66;101131.97;6052136;28;20037;-67
2022/06/03 14:15:16;;;;;;;3.47;1.52;;;;;;;26.73;31.56;101120.91;6058609;28;20241;-67
2022/06/03 14:18:12;;;;;;;2.17;1.48;;;;;;;26.06;31.41;101124.31;6052990;28;20041;-67
2022/06/03 14:21:07;;;;;;;3.05;1.50;;;;;;;26.52;30.09;101113.41;6051431;28;20033;-67
2022/06/03 14:24:31;;;;;;;2.47;1.60;;;;;;;25.99;32.09;101119.00;6051850;28;20505;-66
2022/06/03 14:27:33;;;;;;;2.58;1.70;;;;;;;25.87;31.33;101119.00;6053320;28;20120;-67
2022/06/03 14:30:51;;;;;;;1.75;1.45;;;;;;;26.21;30.74;101111.09;6063519;28;20026;-67
2022/06/03 14:33:49;;;;;;;2.90;1.70;;;;;;;26.16;30.91;101121.84;6068357;28;20037;-66
2022/06/03 14:36:46;;;;;;;1.95;1.50;;;;;;;26.83;29.90;101112.94;6052688;28;20022;-67
2022/06/03 14:39:44;;;;;;;3.75;1.70;;;;;;;27.70;30.17;101116.13;6051675;28;20072;-67
2022/06/03 14:42:41;;;;;;;4.57;1.40;;;;;;;28.21;28.45;101124.00;6052386;28;20503;-67
2022/06/03 14:45:42;;;;;;;3.80;1.90;;;;;;;26.13;32.31;101122.28;6067422;28;20034;-67
2022/06/03 14:48:50;;;;;;;3.20;1.70;;;;;;;25.70;31.28;101118.06;6068058;28;20113;-66
2022/06/03 14:51:49;;;;;;;2.85;1.80;;;;;;;26.41;31.55;101106.09;6050691;28;20616;-67
2022/06/03 14:54:53;;;;;;;2.65;1.50;;;;;;;26.07;30.97;101107.75;6052624;28;20046;-67
2022/06/03 14:57:54;;;;;;;3.05;1.73;;;;;;;25.74;32.39;101116.50;6054574;28;20033;-66
2022/06/03 15:01:00;;;;;;;3.92;2.40;;;;;;;26.15;31.43;101112.03;6051964;28;20048;-67
2022/06/03 15:04:03;;;;;;;7.40;1.90;;;;;;;26.63;31.81;101104.38;6052256;28;20493;-66
2022/06/03 15:07:05;;;;;;;4.88;1.58;;;;;;;26.62;31.05;101108.16;6052493;28;20078;-67
2022/06/03 15:10:05;;;;;;;4.20;1.30;;;;;;;26.59;31.10;101106.75;6050448;28;20433;-67